sensor_id;sensor_type;location;lat;lon;timestamp;P1;durP1;ratioP1;P2;durP2;ratioP2
27744;SDS011;61387;48.112;8.616;2023-08-01T00:02:21;6.47;;;3.17;;
27744;SDS011;61387;48.112;8.616;2023-08-01T00:04:47;6.73;;;3.37;;
27744;SDS011;61387;48.112;8.616;2023-08-01T00:07:13;7.20;;;3.50;;
27744;SDS011;61387;48.112;8.616;2023-08-01T00:09:39;6.40;;;3.30;;
27744;SDS011;61387;48.112;8.616;2023-08-01T00:12:04;6.47;;;3.43;;
27744;SDS011;61387;48.112;8.616;2023-08-01T00:14:30;6.20;;;3.30;;
27744;SDS011;61387;48.112;8.616;2023-08-01T00:16:56;6.67;;;3.30;;
27744;SDS011;61387;48.112;8.616;2023-08-01T00:19:21;6.10;;;3.58;;
27744;SDS011;61387;48.112;8.616;2023-08-01T00:21:47;7.43;;;3.23;;
27744;SDS011;61387;48.112;8.616;2023-08-01T00:24:13;6.18;;;3.40;;
27744;SDS011;61387;48.112;8.616;2023-08-01T00:26:40;5.97;;;3.33;;
27744;SDS011;61387;48.112;8.616;2023-08-01T00:29:05;5.27;;;3.33;;
27744;SDS011;61387;48.112;8.616;2023-08-01T00:31:31;5.70;;;3.22;;
27744;SDS011;61387;48.112;8.616;2023-08-01T00:33:57;6.43;;;3.60;;
27744;SDS011;61387;48.112;8.616;2023-08-01T00:36:23;7.57;;;3.90;;
27744;SDS011;61387;48.112;8.616;2023-08-01T00:38:48;6.43;;;3.43;;
27744;SDS011;61387;48.112;8.616;2023-08-01T00:41:14;5.37;;;3.10;;
27744;SDS011;61387;48.112;8.616;2023-08-01T00:43:40;5.17;;;3.07;;
27744;SDS011;61387;48.112;8.616;2023-08-01T00:46:06;5.33;;;3.30;;
27744;SDS011;61387;48.112;8.616;2023-08-01T00:48:33;6.47;;;3.50;;
27744;SDS011;61387;48.112;8.616;2023-08-01T00:50:59;6.73;;;3.20;;
27744;SDS011;61387;48.112;8.616;2023-08-01T00:53:26;5.43;;;3.70;;
27744;SDS011;61387;48.112;8.616;2023-08-01T00:55:53;7.17;;;3.60;;
27744;SDS011;61387;48.112;8.616;2023-08-01T00:58:20;7.47;;;3.30;;
27744;SDS011;61387;48.112;8.616;2023-08-01T01:00:46;6.43;;;3.53;;
27744;SDS011;61387;48.112;8.616;2023-08-01T01:03:12;8.75;;;3.75;;
27744;SDS011;61387;48.112;8.616;2023-08-01T01:05:39;7.33;;;3.77;;
27744;SDS011;61387;48.112;8.616;2023-08-01T01:08:27;5.37;;;3.20;;
27744;SDS011;61387;48.112;8.616;2023-08-01T01:10:53;6.93;;;3.80;;
27744;SDS011;61387;48.112;8.616;2023-08-01T01:13:19;6.00;;;3.63;;
27744;SDS011;61387;48.112;8.616;2023-08-01T01:15:45;6.70;;;3.40;;
27744;SDS011;61387;48.112;8.616;2023-08-01T01:18:10;5.27;;;3.03;;
27744;SDS011;61387;48.112;8.616;2023-08-01T01:20:36;6.57;;;3.80;;
27744;SDS011;61387;48.112;8.616;2023-08-01T01:23:05;6.50;;;4.03;;
27744;SDS011;61387;48.112;8.616;2023-08-01T01:25:33;7.87;;;4.10;;
27744;SDS011;61387;48.112;8.616;2023-08-01T01:28:01;6.32;;;3.50;;
27744;SDS011;61387;48.112;8.616;2023-08-01T01:30:29;6.20;;;3.43;;
27744;SDS011;61387;48.112;8.616;2023-08-01T01:32:55;7.10;;;4.10;;
27744;SDS011;61387;48.112;8.616;2023-08-01T01:35:20;6.80;;;3.50;;
27744;SDS011;61387;48.112;8.616;2023-08-01T01:37:46;6.83;;;3.40;;
27744;SDS011;61387;48.112;8.616;2023-08-01T01:40:12;6.03;;;3.70;;
27744;SDS011;61387;48.112;8.616;2023-08-01T01:42:37;7.77;;;3.50;;
27744;SDS011;61387;48.112;8.616;2023-08-01T01:45:03;8.43;;;3.50;;
27744;SDS011;61387;48.112;8.616;2023-08-01T01:47:29;7.15;;;3.80;;
27744;SDS011;61387;48.112;8.616;2023-08-01T01:49:55;7.13;;;3.70;;
27744;SDS011;61387;48.112;8.616;2023-08-01T01:52:20;9.50;;;3.53;;
27744;SDS011;61387;48.112;8.616;2023-08-01T01:54:46;7.13;;;3.70;;
27744;SDS011;61387;48.112;8.616;2023-08-01T01:57:12;6.57;;;4.03;;
27744;SDS011;61387;48.112;8.616;2023-08-01T01:59:37;6.70;;;3.77;;
27744;SDS011;61387;48.112;8.616;2023-08-01T02:02:03;6.77;;;3.80;;
27744;SDS011;61387;48.112;8.616;2023-08-01T02:04:29;6.33;;;3.83;;
27744;SDS011;61387;48.112;8.616;2023-08-01T02:06:55;7.27;;;3.80;;
27744;SDS011;61387;48.112;8.616;2023-08-01T02:09:21;7.13;;;4.00;;
27744;SDS011;61387;48.112;8.616;2023-08-01T02:11:47;6.97;;;3.73;;
27744;SDS011;61387;48.112;8.616;2023-08-01T02:14:13;5.70;;;3.57;;
27744;SDS011;61387;48.112;8.616;2023-08-01T02:16:39;7.77;;;4.23;;
27744;SDS011;61387;48.112;8.616;2023-08-01T02:19:04;8.77;;;3.63;;
27744;SDS011;61387;48.112;8.616;2023-08-01T02:21:30;6.67;;;3.70;;
27744;SDS011;61387;48.112;8.616;2023-08-01T02:23:56;6.67;;;3.50;;
27744;SDS011;61387;48.112;8.616;2023-08-01T02:26:22;6.60;;;4.00;;
27744;SDS011;61387;48.112;8.616;2023-08-01T02:28:49;7.33;;;3.80;;
27744;SDS011;61387;48.112;8.616;2023-08-01T02:31:15;6.77;;;3.77;;
27744;SDS011;61387;48.112;8.616;2023-08-01T02:33:41;7.93;;;3.83;;
27744;SDS011;61387;48.112;8.616;2023-08-01T02:36:07;6.97;;;3.43;;
27744;SDS011;61387;48.112;8.616;2023-08-01T02:38:33;5.70;;;3.67;;
27744;SDS011;61387;48.112;8.616;2023-08-01T02:40:59;6.97;;;3.80;;
27744;SDS011;61387;48.112;8.616;2023-08-01T02:43:25;7.53;;;3.70;;
27744;SDS011;61387;48.112;8.616;2023-08-01T02:45:51;8.90;;;3.83;;
27744;SDS011;61387;48.112;8.616;2023-08-01T02:48:16;7.17;;;3.60;;
27744;SDS011;61387;48.112;8.616;2023-08-01T02:50:42;7.53;;;3.50;;
27744;SDS011;61387;48.112;8.616;2023-08-01T02:53:07;8.40;;;3.43;;
27744;SDS011;61387;48.112;8.616;2023-08-01T02:55:33;6.23;;;3.57;;
27744;SDS011;61387;48.112;8.616;2023-08-01T02:58:04;5.87;;;3.10;;
27744;SDS011;61387;48.112;8.616;2023-08-01T03:00:29;6.53;;;3.60;;
27744;SDS011;61387;48.112;8.616;2023-08-01T03:02:57;7.73;;;3.40;;
27744;SDS011;61387;48.112;8.616;2023-08-01T03:05:23;8.07;;;3.23;;
27744;SDS011;61387;48.112;8.616;2023-08-01T03:07:48;5.35;;;2.92;;
27744;SDS011;61387;48.112;8.616;2023-08-01T03:10:14;7.33;;;3.20;;
27744;SDS011;61387;48.112;8.616;2023-08-01T03:12:40;7.03;;;3.67;;
27744;SDS011;61387;48.112;8.616;2023-08-01T03:15:05;6.85;;;3.30;;
27744;SDS011;61387;48.112;8.616;2023-08-01T03:17:33;6.37;;;3.10;;
27744;SDS011;61387;48.112;8.616;2023-08-01T03:19:59;8.00;;;3.50;;
27744;SDS011;61387;48.112;8.616;2023-08-01T03:22:25;6.43;;;3.20;;
27744;SDS011;61387;48.112;8.616;2023-08-01T03:24:51;6.47;;;2.97;;
27744;SDS011;61387;48.112;8.616;2023-08-01T03:27:16;6.93;;;3.10;;
27744;SDS011;61387;48.112;8.616;2023-08-01T03:29:42;7.37;;;3.57;;
27744;SDS011;61387;48.112;8.616;2023-08-01T03:32:08;5.03;;;3.10;;
27744;SDS011;61387;48.112;8.616;2023-08-01T03:34:33;8.17;;;3.30;;
27744;SDS011;61387;48.112;8.616;2023-08-01T03:36:59;6.77;;;3.50;;
27744;SDS011;61387;48.112;8.616;2023-08-01T03:39:25;7.00;;;3.00;;
27744;SDS011;61387;48.112;8.616;2023-08-01T03:41:51;6.90;;;3.60;;
27744;SDS011;61387;48.112;8.616;2023-08-01T03:44:17;8.00;;;3.43;;
27744;SDS011;61387;48.112;8.616;2023-08-01T03:46:43;6.27;;;3.03;;
27744;SDS011;61387;48.112;8.616;2023-08-01T03:49:09;8.03;;;3.43;;
27744;SDS011;61387;48.112;8.616;2023-08-01T03:51:35;5.77;;;3.10;;
27744;SDS011;61387;48.112;8.616;2023-08-01T03:54:01;8.17;;;2.97;;
27744;SDS011;61387;48.112;8.616;2023-08-01T03:56:27;5.93;;;3.47;;
27744;SDS011;61387;48.112;8.616;2023-08-01T03:58:53;5.37;;;3.13;;
27744;SDS011;61387;48.112;8.616;2023-08-01T04:01:19;8.43;;;3.20;;
27744;SDS011;61387;48.112;8.616;2023-08-01T04:03:45;8.77;;;3.70;;
27744;SDS011;61387;48.112;8.616;2023-08-01T04:06:11;8.97;;;3.27;;
27744;SDS011;61387;48.112;8.616;2023-08-01T04:08:40;7.70;;;3.33;;
27744;SDS011;61387;48.112;8.616;2023-08-01T04:11:06;8.57;;;3.90;;
27744;SDS011;61387;48.112;8.616;2023-08-01T04:13:31;8.50;;;3.60;;
27744;SDS011;61387;48.112;8.616;2023-08-01T04:15:57;6.93;;;3.40;;
27744;SDS011;61387;48.112;8.616;2023-08-01T04:18:23;6.70;;;3.50;;
27744;SDS011;61387;48.112;8.616;2023-08-01T04:20:49;6.37;;;3.20;;
27744;SDS011;61387;48.112;8.616;2023-08-01T04:23:14;8.83;;;3.67;;
27744;SDS011;61387;48.112;8.616;2023-08-01T04:25:40;6.73;;;3.83;;
27744;SDS011;61387;48.112;8.616;2023-08-01T04:28:07;8.67;;;3.40;;
27744;SDS011;61387;48.112;8.616;2023-08-01T04:30:33;8.37;;;3.90;;
27744;SDS011;61387;48.112;8.616;2023-08-01T04:32:58;7.00;;;3.37;;
27744;SDS011;61387;48.112;8.616;2023-08-01T04:35:24;6.37;;;3.50;;
27744;SDS011;61387;48.112;8.616;2023-08-01T04:37:50;8.87;;;4.07;;
27744;SDS011;61387;48.112;8.616;2023-08-01T04:40:16;10.00;;;3.93;;
27744;SDS011;61387;48.112;8.616;2023-08-01T04:42:42;7.97;;;3.67;;
27744;SDS011;61387;48.112;8.616;2023-08-01T04:45:08;8.23;;;4.13;;
27744;SDS011;61387;48.112;8.616;2023-08-01T04:47:34;7.80;;;3.83;;
27744;SDS011;61387;48.112;8.616;2023-08-01T04:50:00;6.13;;;3.80;;
27744;SDS011;61387;48.112;8.616;2023-08-01T04:52:26;6.87;;;3.83;;
27744;SDS011;61387;48.112;8.616;2023-08-01T04:54:52;6.60;;;3.60;;
27744;SDS011;61387;48.112;8.616;2023-08-01T04:57:18;8.77;;;4.27;;
27744;SDS011;61387;48.112;8.616;2023-08-01T04:59:44;6.60;;;3.87;;
27744;SDS011;61387;48.112;8.616;2023-08-01T05:02:10;7.37;;;3.70;;
27744;SDS011;61387;48.112;8.616;2023-08-01T05:04:36;8.43;;;4.03;;
27744;SDS011;61387;48.112;8.616;2023-08-01T05:07:03;8.87;;;4.50;;
27744;SDS011;61387;48.112;8.616;2023-08-01T05:09:31;8.83;;;4.10;;
27744;SDS011;61387;48.112;8.616;2023-08-01T05:11:57;7.97;;;4.10;;
27744;SDS011;61387;48.112;8.616;2023-08-01T05:14:23;8.03;;;3.97;;
27744;SDS011;61387;48.112;8.616;2023-08-01T05:16:49;7.27;;;4.10;;
27744;SDS011;61387;48.112;8.616;2023-08-01T05:19:15;7.13;;;4.53;;
27744;SDS011;61387;48.112;8.616;2023-08-01T05:21:40;8.77;;;4.07;;
27744;SDS011;61387;48.112;8.616;2023-08-01T05:24:06;9.53;;;4.30;;
27744;SDS011;61387;48.112;8.616;2023-08-01T05:26:32;8.73;;;4.00;;
27744;SDS011;61387;48.112;8.616;2023-08-01T05:28:58;7.40;;;4.33;;
27744;SDS011;61387;48.112;8.616;2023-08-01T05:31:24;8.67;;;4.37;;
27744;SDS011;61387;48.112;8.616;2023-08-01T05:33:50;9.13;;;4.00;;
27744;SDS011;61387;48.112;8.616;2023-08-01T05:36:16;10.40;;;5.40;;
27744;SDS011;61387;48.112;8.616;2023-08-01T05:38:42;8.10;;;3.80;;
27744;SDS011;61387;48.112;8.616;2023-08-01T05:41:08;7.67;;;4.23;;
27744;SDS011;61387;48.112;8.616;2023-08-01T05:43:33;8.83;;;4.40;;
27744;SDS011;61387;48.112;8.616;2023-08-01T05:45:59;7.50;;;4.53;;
27744;SDS011;61387;48.112;8.616;2023-08-01T05:48:25;11.43;;;5.67;;
27744;SDS011;61387;48.112;8.616;2023-08-01T05:50:51;7.83;;;4.20;;
27744;SDS011;61387;48.112;8.616;2023-08-01T05:53:20;9.43;;;4.17;;
27744;SDS011;61387;48.112;8.616;2023-08-01T05:55:46;7.37;;;4.23;;
27744;SDS011;61387;48.112;8.616;2023-08-01T05:58:12;7.33;;;3.90;;
27744;SDS011;61387;48.112;8.616;2023-08-01T06:00:37;9.67;;;4.00;;
27744;SDS011;61387;48.112;8.616;2023-08-01T06:03:03;7.63;;;4.10;;
27744;SDS011;61387;48.112;8.616;2023-08-01T06:05:29;9.30;;;4.03;;
27744;SDS011;61387;48.112;8.616;2023-08-01T06:07:55;6.80;;;3.70;;
27744;SDS011;61387;48.112;8.616;2023-08-01T06:10:21;7.20;;;3.70;;
27744;SDS011;61387;48.112;8.616;2023-08-01T06:12:47;8.83;;;3.57;;
27744;SDS011;61387;48.112;8.616;2023-08-01T06:15:13;7.50;;;3.83;;
27744;SDS011;61387;48.112;8.616;2023-08-01T06:17:39;8.90;;;4.00;;
27744;SDS011;61387;48.112;8.616;2023-08-01T06:20:05;7.37;;;3.40;;
27744;SDS011;61387;48.112;8.616;2023-08-01T06:22:31;9.57;;;4.40;;
27744;SDS011;61387;48.112;8.616;2023-08-01T06:24:57;7.03;;;3.87;;
27744;SDS011;61387;48.112;8.616;2023-08-01T06:27:23;9.63;;;5.00;;
27744;SDS011;61387;48.112;8.616;2023-08-01T06:29:48;9.93;;;4.93;;
27744;SDS011;61387;48.112;8.616;2023-08-01T06:32:14;6.87;;;4.30;;
27744;SDS011;61387;48.112;8.616;2023-08-01T06:34:40;9.03;;;4.50;;
27744;SDS011;61387;48.112;8.616;2023-08-01T06:37:06;8.07;;;4.03;;
27744;SDS011;61387;48.112;8.616;2023-08-01T06:39:32;10.60;;;4.90;;
27744;SDS011;61387;48.112;8.616;2023-08-01T06:41:58;8.70;;;4.23;;
27744;SDS011;61387;48.112;8.616;2023-08-01T06:44:24;9.83;;;4.60;;
27744;SDS011;61387;48.112;8.616;2023-08-01T06:46:50;9.00;;;4.50;;
27744;SDS011;61387;48.112;8.616;2023-08-01T06:49:16;9.70;;;4.70;;
27744;SDS011;61387;48.112;8.616;2023-08-01T06:51:41;10.27;;;5.10;;
27744;SDS011;61387;48.112;8.616;2023-08-01T06:54:07;10.00;;;4.63;;
27744;SDS011;61387;48.112;8.616;2023-08-01T06:56:33;9.02;;;4.30;;
27744;SDS011;61387;48.112;8.616;2023-08-01T06:58:59;9.13;;;4.53;;
27744;SDS011;61387;48.112;8.616;2023-08-01T07:01:25;8.70;;;4.60;;
27744;SDS011;61387;48.112;8.616;2023-08-01T07:03:51;8.03;;;4.70;;
27744;SDS011;61387;48.112;8.616;2023-08-01T07:06:17;8.30;;;4.47;;
27744;SDS011;61387;48.112;8.616;2023-08-01T07:08:43;6.20;;;3.63;;
27744;SDS011;61387;48.112;8.616;2023-08-01T07:11:09;11.67;;;4.00;;
27744;SDS011;61387;48.112;8.616;2023-08-01T07:13:35;8.40;;;3.60;;
27744;SDS011;61387;48.112;8.616;2023-08-01T07:16:01;9.87;;;4.57;;
27744;SDS011;61387;48.112;8.616;2023-08-01T07:18:27;8.13;;;3.97;;
27744;SDS011;61387;48.112;8.616;2023-08-01T07:21:03;7.07;;;3.60;;
27744;SDS011;61387;48.112;8.616;2023-08-01T07:23:29;7.40;;;3.97;;
27744;SDS011;61387;48.112;8.616;2023-08-01T07:25:55;7.23;;;3.70;;
27744;SDS011;61387;48.112;8.616;2023-08-01T07:28:21;7.43;;;3.97;;
27744;SDS011;61387;48.112;8.616;2023-08-01T07:30:46;7.47;;;3.90;;
27744;SDS011;61387;48.112;8.616;2023-08-01T07:33:12;6.97;;;3.90;;
27744;SDS011;61387;48.112;8.616;2023-08-01T07:35:38;8.93;;;3.50;;
27744;SDS011;61387;48.112;8.616;2023-08-01T07:38:04;6.70;;;3.43;;
27744;SDS011;61387;48.112;8.616;2023-08-01T07:40:29;6.77;;;3.40;;
27744;SDS011;61387;48.112;8.616;2023-08-01T07:42:55;6.57;;;3.27;;
27744;SDS011;61387;48.112;8.616;2023-08-01T07:45:20;6.10;;;3.20;;
27744;SDS011;61387;48.112;8.616;2023-08-01T07:47:47;4.97;;;2.97;;
27744;SDS011;61387;48.112;8.616;2023-08-01T07:50:12;7.70;;;3.00;;
27744;SDS011;61387;48.112;8.616;2023-08-01T07:52:38;6.33;;;2.90;;
27744;SDS011;61387;48.112;8.616;2023-08-01T07:55:04;4.37;;;2.83;;
27744;SDS011;61387;48.112;8.616;2023-08-01T07:57:30;6.60;;;3.20;;
27744;SDS011;61387;48.112;8.616;2023-08-01T07:59:56;5.73;;;3.23;;
27744;SDS011;61387;48.112;8.616;2023-08-01T08:02:21;6.27;;;2.97;;
27744;SDS011;61387;48.112;8.616;2023-08-01T08:04:47;6.13;;;2.70;;
27744;SDS011;61387;48.112;8.616;2023-08-01T08:07:13;6.43;;;3.70;;
27744;SDS011;61387;48.112;8.616;2023-08-01T08:09:39;5.53;;;3.30;;
27744;SDS011;61387;48.112;8.616;2023-08-01T08:12:05;6.53;;;3.53;;
27744;SDS011;61387;48.112;8.616;2023-08-01T08:14:31;6.43;;;3.20;;
27744;SDS011;61387;48.112;8.616;2023-08-01T08:16:57;7.43;;;3.67;;
27744;SDS011;61387;48.112;8.616;2023-08-01T08:19:23;8.83;;;4.80;;
27744;SDS011;61387;48.112;8.616;2023-08-01T08:21:50;5.43;;;2.87;;
27744;SDS011;61387;48.112;8.616;2023-08-01T08:24:16;8.90;;;4.33;;
27744;SDS011;61387;48.112;8.616;2023-08-01T08:26:41;5.50;;;3.13;;
27744;SDS011;61387;48.112;8.616;2023-08-01T08:29:07;6.10;;;2.80;;
27744;SDS011;61387;48.112;8.616;2023-08-01T08:31:33;5.83;;;2.83;;
27744;SDS011;61387;48.112;8.616;2023-08-01T08:33:59;8.07;;;2.63;;
27744;SDS011;61387;48.112;8.616;2023-08-01T08:36:25;8.03;;;2.73;;
27744;SDS011;61387;48.112;8.616;2023-08-01T08:38:51;5.53;;;2.60;;
27744;SDS011;61387;48.112;8.616;2023-08-01T08:41:20;5.60;;;2.40;;
27744;SDS011;61387;48.112;8.616;2023-08-01T08:43:48;7.07;;;2.73;;
27744;SDS011;61387;48.112;8.616;2023-08-01T08:46:15;6.00;;;2.90;;
27744;SDS011;61387;48.112;8.616;2023-08-01T08:48:41;5.43;;;2.87;;
27744;SDS011;61387;48.112;8.616;2023-08-01T08:51:09;7.90;;;3.00;;
27744;SDS011;61387;48.112;8.616;2023-08-01T08:53:35;5.60;;;2.90;;
27744;SDS011;61387;48.112;8.616;2023-08-01T08:56:01;5.53;;;2.60;;
27744;SDS011;61387;48.112;8.616;2023-08-01T08:58:31;6.73;;;2.73;;
27744;SDS011;61387;48.112;8.616;2023-08-01T09:00:56;6.73;;;2.90;;
27744;SDS011;61387;48.112;8.616;2023-08-01T09:03:25;5.07;;;2.97;;
27744;SDS011;61387;48.112;8.616;2023-08-01T09:05:51;5.63;;;3.17;;
27744;SDS011;61387;48.112;8.616;2023-08-01T09:08:25;9.80;;;3.60;;
27744;SDS011;61387;48.112;8.616;2023-08-01T09:10:53;6.10;;;2.80;;
27744;SDS011;61387;48.112;8.616;2023-08-01T09:13:19;5.77;;;3.07;;
27744;SDS011;61387;48.112;8.616;2023-08-01T09:15:44;6.03;;;3.00;;
27744;SDS011;61387;48.112;8.616;2023-08-01T09:18:11;4.73;;;2.50;;
27744;SDS011;61387;48.112;8.616;2023-08-01T09:20:44;4.47;;;2.13;;
27744;SDS011;61387;48.112;8.616;2023-08-01T09:23:11;4.20;;;2.33;;
27744;SDS011;61387;48.112;8.616;2023-08-01T09:25:37;5.00;;;2.70;;
27744;SDS011;61387;48.112;8.616;2023-08-01T09:28:03;3.93;;;2.43;;
27744;SDS011;61387;48.112;8.616;2023-08-01T09:30:47;4.50;;;2.53;;
27744;SDS011;61387;48.112;8.616;2023-08-01T09:33:14;5.70;;;2.90;;
27744;SDS011;61387;48.112;8.616;2023-08-01T09:35:40;5.03;;;2.33;;
27744;SDS011;61387;48.112;8.616;2023-08-01T09:38:06;7.13;;;2.60;;
27744;SDS011;61387;48.112;8.616;2023-08-01T09:40:36;5.37;;;2.80;;
27744;SDS011;61387;48.112;8.616;2023-08-01T09:43:02;5.83;;;2.63;;
27744;SDS011;61387;48.112;8.616;2023-08-01T09:45:28;6.33;;;2.87;;
27744;SDS011;61387;48.112;8.616;2023-08-01T09:47:53;7.97;;;3.20;;
27744;SDS011;61387;48.112;8.616;2023-08-01T09:50:20;6.07;;;3.33;;
27744;SDS011;61387;48.112;8.616;2023-08-01T09:52:47;7.63;;;3.23;;
27744;SDS011;61387;48.112;8.616;2023-08-01T09:55:19;6.67;;;3.20;;
27744;SDS011;61387;48.112;8.616;2023-08-01T09:57:58;4.87;;;2.37;;
27744;SDS011;61387;48.112;8.616;2023-08-01T10:00:28;4.93;;;2.47;;
27744;SDS011;61387;48.112;8.616;2023-08-01T10:02:58;5.60;;;2.97;;
27744;SDS011;61387;48.112;8.616;2023-08-01T10:05:31;3.50;;;2.30;;
27744;SDS011;61387;48.112;8.616;2023-08-01T10:08:00;6.13;;;2.27;;
27744;SDS011;61387;48.112;8.616;2023-08-01T10:10:28;3.80;;;1.90;;
27744;SDS011;61387;48.112;8.616;2023-08-01T10:12:55;3.93;;;1.83;;
27744;SDS011;61387;48.112;8.616;2023-08-01T10:15:23;4.87;;;1.80;;
27744;SDS011;61387;48.112;8.616;2023-08-01T10:17:50;3.30;;;1.77;;
27744;SDS011;61387;48.112;8.616;2023-08-01T10:20:16;2.63;;;1.70;;
27744;SDS011;61387;48.112;8.616;2023-08-01T10:22:43;3.47;;;1.70;;
27744;SDS011;61387;48.112;8.616;2023-08-01T10:25:10;3.53;;;1.57;;
27744;SDS011;61387;48.112;8.616;2023-08-01T10:27:36;3.83;;;1.77;;
27744;SDS011;61387;48.112;8.616;2023-08-01T10:30:03;3.00;;;1.83;;
27744;SDS011;61387;48.112;8.616;2023-08-01T10:34:57;2.87;;;1.80;;
27744;SDS011;61387;48.112;8.616;2023-08-01T10:37:23;1.87;;;1.33;;
27744;SDS011;61387;48.112;8.616;2023-08-01T10:39:58;3.17;;;1.70;;
27744;SDS011;61387;48.112;8.616;2023-08-01T10:42:25;3.03;;;1.62;;
27744;SDS011;61387;48.112;8.616;2023-08-01T10:45:02;2.55;;;1.58;;
27744;SDS011;61387;48.112;8.616;2023-08-01T10:47:27;3.33;;;1.47;;
27744;SDS011;61387;48.112;8.616;2023-08-01T10:49:53;4.53;;;1.90;;
27744;SDS011;61387;48.112;8.616;2023-08-01T10:52:20;4.20;;;1.73;;
27744;SDS011;61387;48.112;8.616;2023-08-01T10:54:59;2.28;;;1.12;;
27744;SDS011;61387;48.112;8.616;2023-08-01T10:57:30;4.85;;;1.85;;
27744;SDS011;61387;48.112;8.616;2023-08-01T10:59:57;2.22;;;1.33;;
27744;SDS011;61387;48.112;8.616;2023-08-01T11:02:24;1.90;;;1.15;;
27744;SDS011;61387;48.112;8.616;2023-08-01T11:04:54;2.97;;;1.27;;
27744;SDS011;61387;48.112;8.616;2023-08-01T11:07:21;3.17;;;1.40;;
27744;SDS011;61387;48.112;8.616;2023-08-01T11:09:47;1.77;;;1.17;;
27744;SDS011;61387;48.112;8.616;2023-08-01T11:12:12;2.62;;;1.37;;
27744;SDS011;61387;48.112;8.616;2023-08-01T11:14:38;2.13;;;0.80;;
27744;SDS011;61387;48.112;8.616;2023-08-01T11:17:04;2.45;;;1.30;;
27744;SDS011;61387;48.112;8.616;2023-08-01T11:19:30;2.87;;;1.50;;
27744;SDS011;61387;48.112;8.616;2023-08-01T11:21:57;2.83;;;1.30;;
27744;SDS011;61387;48.112;8.616;2023-08-01T11:24:24;4.57;;;1.52;;
27744;SDS011;61387;48.112;8.616;2023-08-01T11:26:51;2.78;;;1.10;;
27744;SDS011;61387;48.112;8.616;2023-08-01T11:29:18;1.95;;;1.10;;
27744;SDS011;61387;48.112;8.616;2023-08-01T11:31:52;1.55;;;1.20;;
27744;SDS011;61387;48.112;8.616;2023-08-01T11:34:22;1.23;;;0.77;;
27744;SDS011;61387;48.112;8.616;2023-08-01T11:36:48;1.23;;;0.95;;
27744;SDS011;61387;48.112;8.616;2023-08-01T11:39:14;2.55;;;1.30;;
27744;SDS011;61387;48.112;8.616;2023-08-01T11:41:41;1.57;;;1.00;;
27744;SDS011;61387;48.112;8.616;2023-08-01T11:44:07;2.87;;;1.23;;
27744;SDS011;61387;48.112;8.616;2023-08-01T11:46:34;1.95;;;1.00;;
27744;SDS011;61387;48.112;8.616;2023-08-01T11:49:03;1.40;;;1.00;;
27744;SDS011;61387;48.112;8.616;2023-08-01T11:51:31;5.07;;;1.07;;
27744;SDS011;61387;48.112;8.616;2023-08-01T11:54:05;4.27;;;1.00;;
27744;SDS011;61387;48.112;8.616;2023-08-01T11:56:32;1.93;;;0.87;;
27744;SDS011;61387;48.112;8.616;2023-08-01T11:59:07;2.23;;;0.80;;
27744;SDS011;61387;48.112;8.616;2023-08-01T12:01:43;0.97;;;0.33;;
27744;SDS011;61387;48.112;8.616;2023-08-01T12:04:10;3.07;;;1.00;;
27744;SDS011;61387;48.112;8.616;2023-08-01T12:06:36;1.67;;;0.83;;
27744;SDS011;61387;48.112;8.616;2023-08-01T12:09:10;5.67;;;1.57;;
27744;SDS011;61387;48.112;8.616;2023-08-01T12:11:37;1.93;;;0.90;;
27744;SDS011;61387;48.112;8.616;2023-08-01T12:14:23;1.87;;;0.60;;
27744;SDS011;61387;48.112;8.616;2023-08-01T12:16:48;1.87;;;1.00;;
27744;SDS011;61387;48.112;8.616;2023-08-01T12:19:17;2.43;;;0.70;;
27744;SDS011;61387;48.112;8.616;2023-08-01T12:21:44;2.30;;;0.90;;
27744;SDS011;61387;48.112;8.616;2023-08-01T12:24:10;0.97;;;0.60;;
27744;SDS011;61387;48.112;8.616;2023-08-01T12:26:36;0.97;;;0.80;;
27744;SDS011;61387;48.112;8.616;2023-08-01T12:29:02;2.03;;;1.00;;
27744;SDS011;61387;48.112;8.616;2023-08-01T12:31:28;1.93;;;1.17;;
27744;SDS011;61387;48.112;8.616;2023-08-01T12:33:54;2.87;;;1.27;;
27744;SDS011;61387;48.112;8.616;2023-08-01T12:36:20;1.27;;;0.90;;
27744;SDS011;61387;48.112;8.616;2023-08-01T12:38:46;2.27;;;0.80;;
27744;SDS011;61387;48.112;8.616;2023-08-01T12:41:12;2.27;;;1.03;;
27744;SDS011;61387;48.112;8.616;2023-08-01T12:43:38;2.27;;;1.00;;
27744;SDS011;61387;48.112;8.616;2023-08-01T12:46:04;1.03;;;0.60;;
27744;SDS011;61387;48.112;8.616;2023-08-01T12:48:30;1.33;;;1.10;;
27744;SDS011;61387;48.112;8.616;2023-08-01T12:50:56;1.13;;;0.90;;
27744;SDS011;61387;48.112;8.616;2023-08-01T12:53:21;2.53;;;1.60;;
27744;SDS011;61387;48.112;8.616;2023-08-01T12:55:48;3.37;;;1.60;;
27744;SDS011;61387;48.112;8.616;2023-08-01T12:58:15;2.20;;;1.13;;
27744;SDS011;61387;48.112;8.616;2023-08-01T13:00:41;5.17;;;2.20;;
27744;SDS011;61387;48.112;8.616;2023-08-01T13:03:08;1.53;;;1.30;;
27744;SDS011;61387;48.112;8.616;2023-08-01T13:05:35;2.07;;;1.60;;
27744;SDS011;61387;48.112;8.616;2023-08-01T13:08:01;3.37;;;1.20;;
27744;SDS011;61387;48.112;8.616;2023-08-01T13:10:30;1.40;;;0.87;;
27744;SDS011;61387;48.112;8.616;2023-08-01T13:12:57;3.20;;;0.90;;
27744;SDS011;61387;48.112;8.616;2023-08-01T13:15:23;2.43;;;1.10;;
27744;SDS011;61387;48.112;8.616;2023-08-01T13:17:48;2.10;;;1.10;;
27744;SDS011;61387;48.112;8.616;2023-08-01T13:20:15;3.25;;;1.20;;
27744;SDS011;61387;48.112;8.616;2023-08-01T13:22:41;2.53;;;1.10;;
27744;SDS011;61387;48.112;8.616;2023-08-01T13:25:07;1.90;;;0.80;;
27744;SDS011;61387;48.112;8.616;2023-08-01T13:27:34;3.30;;;1.10;;
27744;SDS011;61387;48.112;8.616;2023-08-01T13:30:00;2.12;;;1.00;;
27744;SDS011;61387;48.112;8.616;2023-08-01T13:32:27;2.28;;;1.08;;
27744;SDS011;61387;48.112;8.616;2023-08-01T13:34:56;2.12;;;1.10;;
27744;SDS011;61387;48.112;8.616;2023-08-01T13:37:21;3.83;;;1.05;;
27744;SDS011;61387;48.112;8.616;2023-08-01T13:39:47;1.33;;;0.80;;
27744;SDS011;61387;48.112;8.616;2023-08-01T13:42:13;3.80;;;1.17;;
27744;SDS011;61387;48.112;8.616;2023-08-01T13:44:39;3.57;;;1.43;;
27744;SDS011;61387;48.112;8.616;2023-08-01T13:47:05;2.85;;;1.12;;
27744;SDS011;61387;48.112;8.616;2023-08-01T13:49:31;1.47;;;0.90;;
27744;SDS011;61387;48.112;8.616;2023-08-01T13:51:57;2.15;;;1.10;;
27744;SDS011;61387;48.112;8.616;2023-08-01T13:54:23;3.23;;;1.40;;
27744;SDS011;61387;48.112;8.616;2023-08-01T13:56:49;1.40;;;0.90;;
27744;SDS011;61387;48.112;8.616;2023-08-01T13:59:15;1.57;;;0.93;;
27744;SDS011;61387;48.112;8.616;2023-08-01T14:01:41;1.20;;;0.80;;
27744;SDS011;61387;48.112;8.616;2023-08-01T14:04:07;2.70;;;0.88;;
27744;SDS011;61387;48.112;8.616;2023-08-01T14:06:33;1.00;;;0.70;;
27744;SDS011;61387;48.112;8.616;2023-08-01T14:08:58;3.28;;;1.10;;
27744;SDS011;61387;48.112;8.616;2023-08-01T14:11:24;3.07;;;1.03;;
27744;SDS011;61387;48.112;8.616;2023-08-01T14:13:50;2.77;;;1.10;;
27744;SDS011;61387;48.112;8.616;2023-08-01T14:16:16;1.13;;;0.70;;
27744;SDS011;61387;48.112;8.616;2023-08-01T14:18:42;1.12;;;0.70;;
27744;SDS011;61387;48.112;8.616;2023-08-01T14:21:09;3.75;;;1.00;;
27744;SDS011;61387;48.112;8.616;2023-08-01T14:23:34;0.60;;;0.60;;
27744;SDS011;61387;48.112;8.616;2023-08-01T14:26:03;1.60;;;0.93;;
27744;SDS011;61387;48.112;8.616;2023-08-01T14:28:29;1.00;;;0.70;;
27744;SDS011;61387;48.112;8.616;2023-08-01T14:30:55;2.58;;;0.77;;
27744;SDS011;61387;48.112;8.616;2023-08-01T14:33:21;1.27;;;0.70;;
27744;SDS011;61387;48.112;8.616;2023-08-01T14:35:47;2.43;;;0.90;;
27744;SDS011;61387;48.112;8.616;2023-08-01T14:38:13;0.98;;;0.75;;
27744;SDS011;61387;48.112;8.616;2023-08-01T14:40:39;1.30;;;0.60;;
27744;SDS011;61387;48.112;8.616;2023-08-01T14:43:05;2.27;;;0.97;;
27744;SDS011;61387;48.112;8.616;2023-08-01T14:45:31;1.10;;;1.00;;
27744;SDS011;61387;48.112;8.616;2023-08-01T14:47:57;1.17;;;0.90;;